createdAt,value
2018-05-02T00:00:03.194Z,54.49
2018-05-02T00:02:33.623Z,54.78
2018-05-02T00:05:03.232Z,54.92
2018-05-02T00:07:32.848Z,54.82
2018-05-02T00:10:02.505Z,54.70
2018-05-02T00:12:32.155Z,54.79
2018-05-02T00:15:01.782Z,55.21
2018-05-02T00:17:31.441Z,55.13
2018-05-02T00:20:01.061Z,55.25
2018-05-02T00:22:30.684Z,55.26
2018-05-02T00:25:00.336Z,55.20
2018-05-02T00:27:29.964Z,55.13
2018-05-02T00:29:59.682Z,55.14
2018-05-02T00:32:29.304Z,55.18
2018-05-02T00:34:58.924Z,55.24
2018-05-02T00:37:28.584Z,55.30
2018-05-02T00:39:58.199Z,55.35
2018-05-02T00:42:27.806Z,55.58
2018-05-02T00:44:57.476Z,55.58
2018-05-02T00:47:27.100Z,55.73
2018-05-02T00:49:56.747Z,55.60
2018-05-02T00:52:26.506Z,55.69
2018-05-02T00:54:56.135Z,55.83
2018-05-02T00:57:25.755Z,56.07
2018-05-02T00:59:55.432Z,55.68
2018-05-02T01:02:25.059Z,55.82
2018-05-02T01:04:54.679Z,55.17
2018-05-02T01:07:24.352Z,54.97
2018-05-02T01:09:53.965Z,55.04
2018-05-02T01:12:23.615Z,55.08
2018-05-02T01:14:53.272Z,54.80
2018-05-02T01:17:22.912Z,54.87
2018-05-02T01:19:52.543Z,54.54
2018-05-02T01:22:22.190Z,54.85
2018-05-02T01:24:51.813Z,55.49
2018-05-02T01:27:21.468Z,55.09
2018-05-02T01:29:51.360Z,54.97
2018-05-02T01:32:20.992Z,55.16
2018-05-02T01:34:50.600Z,55.12
2018-05-02T01:37:20.254Z,55.26
2018-05-02T01:39:49.591Z,54.78
2018-05-02T01:42:19.209Z,54.59
2018-05-02T01:44:48.867Z,54.52
2018-05-02T01:47:18.502Z,54.58
2018-05-02T01:49:48.190Z,55.50
2018-05-02T01:52:17.849Z,55.87
2018-05-02T01:54:47.466Z,55.76
2018-05-02T01:57:17.112Z,55.79
2018-05-02T01:59:46.811Z,56.29
2018-05-02T02:02:16.423Z,56.63
2018-05-02T02:04:46.092Z,57.12
2018-05-02T02:07:15.434Z,57.62
2018-05-02T02:09:44.785Z,57.77
2018-05-02T02:12:14.172Z,58.33
2018-05-02T02:14:43.636Z,58.55
2018-05-02T02:17:13.418Z,58.87
2018-05-02T02:19:43.081Z,58.58
2018-05-02T02:22:12.700Z,58.43
2018-05-02T02:24:42.306Z,58.37
2018-05-02T02:27:11.972Z,58.18
2018-05-02T02:29:41.607Z,58.38
2018-05-02T02:32:11.254Z,58.30
2018-05-02T02:34:40.951Z,58.48
2018-05-02T02:37:10.569Z,58.65
2018-05-02T02:39:40.200Z,58.98
2018-05-02T02:42:09.869Z,59.21
2018-05-02T02:44:39.494Z,59.59
2018-05-02T02:47:09.136Z,59.62
2018-05-02T02:49:38.805Z,60.14
2018-05-02T02:52:08.419Z,60.70
2018-05-02T02:54:37.813Z,61.01
2018-05-02T02:57:07.470Z,61.92
2018-05-02T02:59:37.088Z,61.53
2018-05-02T03:02:06.699Z,60.82
2018-05-02T03:04:36.366Z,60.97
2018-05-02T03:07:05.667Z,62.28
2018-05-02T03:09:35.508Z,61.79
2018-05-02T03:12:05.192Z,61.51
2018-05-02T03:14:34.805Z,61.50
2018-05-02T03:17:04.420Z,61.82
2018-05-02T03:19:34.091Z,61.78
2018-05-02T03:22:03.692Z,61.59
2018-05-02T03:24:33.308Z,60.67
2018-05-02T03:27:02.975Z,60.40
2018-05-02T03:29:32.531Z,60.62
2018-05-02T03:32:02.157Z,60.75
2018-05-02T03:34:31.834Z,60.91
2018-05-02T03:37:01.534Z,60.89
2018-05-02T03:39:31.144Z,61.13
2018-05-02T03:42:00.802Z,61.47
2018-05-02T03:44:30.406Z,62.37
2018-05-02T03:47:00.024Z,62.39
2018-05-02T03:49:29.702Z,62.25
2018-05-02T03:51:59.315Z,62.30
2018-05-02T03:54:28.930Z,61.59
2018-05-02T03:56:58.590Z,61.32
2018-05-02T03:59:39.528Z,61.10
2018-05-02T04:02:20.259Z,60.67
2018-05-02T04:05:00.830Z,60.21
2018-05-02T04:07:30.234Z,60.49
2018-05-02T04:09:59.842Z,60.24
2018-05-02T04:12:29.220Z,59.69
2018-05-02T04:14:58.878Z,59.33
2018-05-02T04:17:28.517Z,58.92
2018-05-02T04:19:58.135Z,58.76
2018-05-02T04:22:27.805Z,58.49
2018-05-02T04:24:57.420Z,58.76
2018-05-02T04:27:27.031Z,58.74
2018-05-02T04:29:56.687Z,58.55
2018-05-02T04:32:26.298Z,58.21
2018-05-02T04:34:55.916Z,57.89
2018-05-02T04:37:25.316Z,57.70
2018-05-02T04:39:54.936Z,58.05
2018-05-02T04:42:24.589Z,58.40
2018-05-02T04:44:54.275Z,58.64
2018-05-02T04:47:23.897Z,58.68
2018-05-02T04:49:53.535Z,58.27
2018-05-02T04:52:23.194Z,59.08
2018-05-02T04:54:52.807Z,57.60
2018-05-02T04:57:22.434Z,56.90
2018-05-02T04:59:52.100Z,57.00
2018-05-02T05:02:21.717Z,55.76
2018-05-02T05:04:51.402Z,55.27
2018-05-02T05:07:21.091Z,55.75
2018-05-02T05:09:50.711Z,54.40
2018-05-02T05:12:20.404Z,54.39
2018-05-02T05:14:50.221Z,55.08
2018-05-02T05:17:19.831Z,54.61
2018-05-02T05:19:49.480Z,54.42
2018-05-02T05:22:19.142Z,53.38
2018-05-02T05:24:48.754Z,52.63
2018-05-02T05:27:18.394Z,52.84
2018-05-02T05:29:48.055Z,52.11
2018-05-02T05:32:17.676Z,51.65
2018-05-02T05:34:47.302Z,52.32
2018-05-02T05:37:16.954Z,51.20
2018-05-02T05:39:46.593Z,51.60
2018-05-02T05:42:16.210Z,51.13
2018-05-02T05:44:45.858Z,49.82
2018-05-02T05:47:15.500Z,49.42
2018-05-02T05:49:45.107Z,49.09
2018-05-02T05:52:14.757Z,47.85
2018-05-02T05:54:44.405Z,46.38
2018-05-02T05:57:14.029Z,44.74
2018-05-02T05:59:43.691Z,44.02
2018-05-02T06:02:13.306Z,43.06
2018-05-02T06:04:42.925Z,41.81
2018-05-02T06:07:13.311Z,39.65
2018-05-02T06:09:42.947Z,37.24
2018-05-02T06:12:12.557Z,34.98
2018-05-02T06:14:42.214Z,32.81
2018-05-02T06:17:11.842Z,32.76
2018-05-02T06:19:41.454Z,34.81
2018-05-02T06:22:11.117Z,34.28
2018-05-02T06:24:40.734Z,34.81
2018-05-02T06:27:10.372Z,35.22
2018-05-02T06:29:40.036Z,34.79
2018-05-02T06:32:09.669Z,34.18
2018-05-02T06:34:39.308Z,31.43
2018-05-02T06:37:08.966Z,28.06
2018-05-02T06:39:38.354Z,27.56
2018-05-02T06:42:08.047Z,26.24
2018-05-02T06:44:37.875Z,25.90
2018-05-02T06:47:07.487Z,26.70
2018-05-02T06:49:37.128Z,27.05
2018-05-02T06:52:06.805Z,27.54
2018-05-02T06:54:36.459Z,27.86
2018-05-02T06:57:06.325Z,28.66
2018-05-02T06:59:35.980Z,29.77
2018-05-02T07:02:05.604Z,29.65
2018-05-02T07:04:35.237Z,30.26
2018-05-02T07:07:04.904Z,31.33
2018-05-02T07:09:34.519Z,33.02
2018-05-02T07:12:04.163Z,33.88
2018-05-02T07:14:33.823Z,35.44
2018-05-02T07:17:03.439Z,37.50
2018-05-02T07:19:33.077Z,37.41
2018-05-02T07:22:02.711Z,37.94
2018-05-02T07:24:32.338Z,38.98
2018-05-02T07:27:01.975Z,38.94
2018-05-02T07:29:31.670Z,39.00
2018-05-02T07:32:01.287Z,39.39
2018-05-02T07:34:30.930Z,38.93
2018-05-02T07:37:00.579Z,38.16
2018-05-02T07:39:30.208Z,38.07
2018-05-02T07:41:59.826Z,36.89
2018-05-02T07:44:29.542Z,35.18
2018-05-02T07:46:59.170Z,32.62
2018-05-02T07:49:28.781Z,31.37
2018-05-02T07:51:58.493Z,29.73
2018-05-02T07:54:28.108Z,29.19
2018-05-02T07:56:57.740Z,28.43
2018-05-02T07:59:27.620Z,29.41
2018-05-02T08:01:57.232Z,28.61
2018-05-02T08:04:26.895Z,28.44
2018-05-02T08:06:56.562Z,30.32
2018-05-02T08:09:26.195Z,31.89
2018-05-02T08:11:55.871Z,32.18
2018-05-02T08:14:26.013Z,33.74
2018-05-02T08:16:55.753Z,34.39
2018-05-02T08:19:25.377Z,34.86
2018-05-02T08:21:55.030Z,35.48
2018-05-02T08:24:24.652Z,35.49
2018-05-02T08:26:54.279Z,35.69
2018-05-02T08:29:24.153Z,35.93
2018-05-02T08:31:53.788Z,35.74
2018-05-02T08:34:23.408Z,35.75
2018-05-02T08:36:53.079Z,35.78
2018-05-02T08:39:22.734Z,36.24
2018-05-02T08:41:52.338Z,36.24
2018-05-02T08:44:22.013Z,36.55
2018-05-02T08:46:51.730Z,37.22
2018-05-02T08:49:21.369Z,37.16
2018-05-02T08:51:51.015Z,35.97
2018-05-02T08:54:20.632Z,36.46
2018-05-02T08:56:50.238Z,36.75
2018-05-02T08:59:19.940Z,37.73
2018-05-02T09:01:49.647Z,37.32
2018-05-02T09:04:19.420Z,37.69
2018-05-02T09:06:49.082Z,38.67
2018-05-02T09:09:18.721Z,39.13
2018-05-02T09:11:48.335Z,38.93
2018-05-02T09:14:18.254Z,39.25
2018-05-02T09:16:47.968Z,38.80
2018-05-02T09:19:17.639Z,37.80
2018-05-02T09:21:49.089Z,38.08
2018-05-02T09:24:19.976Z,37.22
2018-05-02T09:26:49.639Z,36.85
2018-05-02T09:29:18.933Z,36.52
2018-05-02T09:31:48.566Z,36.42
2018-05-02T09:34:18.235Z,36.39
2018-05-02T09:36:47.842Z,37.05
2018-05-02T09:39:17.184Z,37.72
2018-05-02T09:41:46.839Z,38.81
2018-05-02T09:44:16.475Z,38.72
2018-05-02T09:46:46.100Z,39.20
2018-05-02T09:49:15.815Z,40.11
2018-05-02T09:51:45.436Z,40.70
2018-05-02T09:54:15.063Z,40.82
2018-05-02T09:56:44.724Z,41.25
2018-05-02T09:59:14.341Z,41.66
2018-05-02T10:01:43.966Z,41.97
2018-05-02T10:04:13.615Z,41.65
2018-05-02T10:06:43.235Z,41.36
2018-05-02T10:09:12.838Z,41.47
2018-05-02T10:11:42.533Z,39.75
2018-05-02T10:14:11.906Z,39.63
2018-05-02T10:16:41.519Z,39.63
2018-05-02T10:19:11.170Z,39.20
2018-05-02T10:21:40.507Z,39.08
2018-05-02T10:24:10.135Z,39.39
2018-05-02T10:26:39.807Z,38.92
2018-05-02T10:29:09.433Z,39.12
2018-05-02T10:31:39.055Z,39.56
2018-05-02T10:34:08.800Z,38.77
2018-05-02T10:36:38.295Z,38.52
2018-05-02T10:39:07.588Z,38.48
2018-05-02T10:41:36.902Z,38.54
2018-05-02T10:44:06.514Z,38.20
2018-05-02T10:46:36.136Z,38.42
2018-05-02T10:49:05.521Z,38.58
2018-05-02T10:51:34.967Z,38.66
2018-05-02T10:54:04.582Z,38.11
2018-05-02T10:56:34.351Z,37.15
2018-05-02T10:59:03.958Z,36.73
2018-05-02T11:01:33.582Z,37.27
2018-05-02T11:04:03.245Z,37.74
2018-05-02T11:06:32.952Z,37.58
2018-05-02T11:09:02.581Z,38.98
2018-05-02T11:11:32.240Z,39.05
2018-05-02T11:14:01.866Z,39.26
2018-05-02T11:16:31.250Z,39.84
2018-05-02T11:19:00.898Z,39.28
2018-05-02T11:21:30.510Z,38.89
2018-05-02T11:24:00.155Z,39.40
2018-05-02T11:26:29.933Z,39.51
2018-05-02T11:28:59.322Z,39.84
2018-05-02T11:31:29.180Z,40.66
2018-05-02T11:33:58.826Z,40.65
2018-05-02T11:36:28.434Z,40.54
2018-05-02T11:38:58.110Z,40.78
2018-05-02T11:41:27.725Z,40.38
2018-05-02T11:43:57.335Z,40.72
2018-05-02T11:46:27.000Z,40.75
2018-05-02T11:48:56.632Z,40.85
2018-05-02T11:51:26.263Z,42.01
2018-05-02T11:53:55.667Z,41.89
2018-05-02T11:56:25.287Z,41.91
2018-05-02T11:58:54.910Z,42.24
2018-05-02T12:01:24.963Z,42.02
2018-05-02T12:03:54.588Z,42.43
2018-05-02T12:06:24.237Z,42.43
2018-05-02T12:08:53.951Z,41.82
2018-05-02T12:11:23.571Z,40.92
2018-05-02T12:13:53.215Z,41.04
2018-05-02T12:16:22.831Z,41.14
2018-05-02T12:18:52.457Z,41.32
2018-05-02T12:21:22.118Z,40.40
2018-05-02T12:23:51.744Z,41.22
2018-05-02T12:26:21.372Z,41.50
2018-05-02T12:28:50.993Z,41.43
2018-05-02T12:31:21.346Z,41.30
2018-05-02T12:33:51.012Z,40.05
2018-05-02T12:36:21.288Z,40.45
2018-05-02T12:38:50.944Z,41.35
2018-05-02T12:41:20.570Z,41.96
2018-05-02T12:43:50.207Z,42.29
2018-05-02T12:46:19.841Z,42.58
2018-05-02T12:48:49.466Z,42.95
2018-05-02T12:51:19.135Z,42.80
2018-05-02T12:53:48.831Z,43.39
2018-05-02T12:56:18.552Z,43.25
2018-05-02T12:58:48.315Z,43.47
2018-05-02T13:01:17.937Z,43.69
2018-05-02T13:03:47.612Z,44.35
2018-05-02T13:06:17.244Z,45.41
2018-05-02T13:08:46.898Z,45.18
2018-05-02T13:11:16.530Z,45.44
2018-05-02T13:13:46.163Z,44.72
2018-05-02T13:16:15.909Z,45.71
2018-05-02T13:18:45.536Z,46.65
2018-05-02T13:21:15.162Z,47.16
2018-05-02T13:23:44.798Z,47.65
2018-05-02T13:26:14.489Z,47.66
2018-05-02T13:28:44.175Z,47.36
2018-05-02T13:31:13.806Z,47.80
2018-05-02T13:33:43.431Z,47.07
2018-05-02T13:36:13.043Z,46.09
2018-05-02T13:38:42.662Z,46.58
2018-05-02T13:41:12.322Z,47.20
2018-05-02T13:43:41.955Z,46.45
2018-05-02T13:46:11.588Z,46.82
2018-05-02T13:48:41.212Z,47.08
2018-05-02T13:51:10.835Z,46.59
2018-05-02T13:53:40.494Z,45.78
2018-05-02T13:56:10.148Z,46.36
2018-05-02T13:58:39.806Z,45.62
2018-05-02T14:01:09.423Z,46.03
2018-05-02T14:03:39.051Z,46.57
2018-05-02T14:06:08.727Z,46.67
2018-05-02T14:08:38.567Z,47.27
2018-05-02T14:11:08.219Z,47.73
2018-05-02T14:13:37.833Z,48.00
2018-05-02T14:16:07.454Z,47.70
2018-05-02T14:18:37.119Z,48.09
2018-05-02T14:21:06.735Z,48.64
2018-05-02T14:23:36.364Z,49.10
2018-05-02T14:26:05.995Z,49.17
2018-05-02T14:28:35.629Z,49.44
2018-05-02T14:31:05.303Z,50.02
2018-05-02T14:33:34.932Z,49.76
2018-05-02T14:36:04.568Z,49.04
2018-05-02T14:38:34.193Z,49.10
2018-05-02T14:41:03.801Z,49.67
2018-05-02T14:43:33.473Z,49.59
2018-05-02T14:46:03.128Z,49.89
2018-05-02T14:48:32.766Z,50.07
2018-05-02T14:51:02.400Z,49.45
2018-05-02T14:53:32.019Z,49.46
2018-05-02T14:56:01.671Z,49.79
2018-05-02T14:58:31.289Z,49.29
2018-05-02T15:01:00.910Z,49.83
2018-05-02T15:03:30.520Z,49.46
2018-05-02T15:06:00.135Z,50.02
2018-05-02T15:08:29.535Z,50.12
2018-05-02T15:10:59.147Z,49.63
2018-05-02T15:13:28.766Z,50.11
2018-05-02T15:15:58.398Z,50.21
2018-05-02T15:18:28.015Z,49.81
2018-05-02T15:20:57.691Z,49.07
2018-05-02T15:23:27.294Z,49.12
2018-05-02T15:25:56.909Z,48.05
2018-05-02T15:28:26.537Z,48.04
2018-05-02T15:30:56.157Z,48.43
2018-05-02T15:33:25.825Z,48.94
2018-05-02T15:35:55.441Z,48.80
2018-05-02T15:38:25.055Z,48.82
2018-05-02T15:40:54.691Z,48.52
2018-05-02T15:43:24.305Z,49.09
2018-05-02T15:45:53.979Z,49.09
2018-05-02T15:48:23.597Z,49.57
2018-05-02T15:50:53.256Z,49.69
2018-05-02T15:53:22.881Z,49.84
2018-05-02T15:55:52.499Z,49.84
2018-05-02T15:58:22.192Z,49.92
2018-05-02T16:00:52.017Z,50.27
2018-05-02T16:03:21.684Z,50.55
2018-05-02T16:05:51.304Z,50.42
2018-05-02T16:08:20.943Z,50.55
2018-05-02T16:10:50.641Z,50.61
2018-05-02T16:13:20.265Z,50.94
2018-05-02T16:15:50.122Z,50.90
2018-05-02T16:18:19.749Z,51.39
2018-05-02T16:20:49.387Z,51.38
2018-05-02T16:23:19.017Z,50.92
2018-05-02T16:25:48.654Z,50.82
2018-05-02T16:28:18.281Z,50.70
2018-05-02T16:30:47.937Z,50.79
2018-05-02T16:33:17.603Z,50.73
2018-05-02T16:35:47.407Z,50.59
2018-05-02T16:38:17.055Z,50.15
2018-05-02T16:40:46.791Z,50.47
2018-05-02T16:43:16.417Z,50.78
2018-05-02T16:45:46.051Z,50.82
2018-05-02T16:48:15.671Z,51.21
2018-05-02T16:50:45.337Z,51.44
2018-05-02T16:53:14.961Z,51.29
2018-05-02T16:55:44.583Z,51.19
2018-05-02T16:58:14.289Z,51.55
2018-05-02T17:00:43.902Z,51.50
2018-05-02T17:03:13.650Z,51.59
2018-05-02T17:05:43.270Z,51.90
2018-05-02T17:08:12.894Z,52.04
2018-05-02T17:10:42.520Z,52.30
2018-05-02T17:13:12.160Z,52.45
2018-05-02T17:15:41.849Z,52.74
2018-05-02T17:18:11.474Z,53.00
2018-05-02T17:20:40.812Z,53.28
2018-05-02T17:23:10.447Z,53.70
2018-05-02T17:25:40.078Z,54.05
2018-05-02T17:28:09.749Z,54.17
2018-05-02T17:30:39.538Z,54.54
2018-05-02T17:33:09.162Z,54.65
2018-05-02T17:35:38.778Z,55.09
2018-05-02T17:38:08.395Z,55.64
2018-05-02T17:40:38.042Z,55.74
2018-05-02T17:43:07.666Z,55.93
2018-05-02T17:45:37.280Z,56.28
2018-05-02T17:48:06.931Z,56.66
2018-05-02T17:50:36.548Z,56.78
2018-05-02T17:53:05.946Z,57.12
2018-05-02T17:55:35.580Z,57.54
2018-05-02T17:58:05.220Z,58.00
2018-05-02T18:00:34.854Z,58.40
2018-05-02T18:03:04.472Z,58.71
2018-05-02T18:05:34.162Z,59.28
2018-05-02T18:08:03.989Z,59.70
2018-05-02T18:10:33.728Z,60.13
2018-05-02T18:13:03.551Z,60.35
2018-05-02T18:15:33.189Z,60.84
2018-05-02T18:18:02.857Z,61.18
2018-05-02T18:20:32.493Z,61.70
2018-05-02T18:23:02.133Z,62.03
2018-05-02T18:25:31.828Z,62.35
2018-05-02T18:28:01.534Z,62.61
2018-05-02T18:30:31.364Z,62.87
2018-05-02T18:33:01.007Z,63.34
2018-05-02T18:35:30.647Z,63.56
2018-05-02T18:38:00.293Z,63.86
2018-05-02T18:40:29.929Z,64.23
2018-05-02T18:42:59.651Z,64.57
2018-05-02T18:45:29.292Z,64.83
2018-05-02T18:47:58.941Z,65.31
2018-05-02T18:50:28.569Z,65.69
2018-05-02T18:52:58.204Z,66.15
2018-05-02T18:55:27.896Z,66.55
2018-05-02T18:57:57.533Z,66.89
2018-05-02T19:00:27.163Z,67.12
2018-05-02T19:02:56.789Z,67.50
2018-05-02T19:05:26.428Z,67.81
2018-05-02T19:07:56.134Z,67.98
2018-05-02T19:10:25.761Z,68.13
2018-05-02T19:12:55.393Z,68.33
2018-05-02T19:15:25.028Z,68.57
2018-05-02T19:17:59.960Z,68.63
2018-05-02T19:20:34.937Z,68.84
2018-05-02T19:23:04.261Z,68.74
2018-05-02T19:25:39.152Z,68.68
2018-05-02T19:28:08.793Z,68.76
2018-05-02T19:30:38.460Z,69.05
2018-05-02T19:33:13.436Z,69.15
2018-05-02T19:35:43.123Z,69.28
2018-05-02T19:38:12.767Z,69.48
2018-05-02T19:40:47.849Z,69.62
2018-05-02T19:43:22.762Z,69.71
2018-05-02T19:45:52.436Z,69.86
2018-05-02T19:48:22.079Z,70.02
2018-05-02T19:50:57.104Z,70.25
2018-05-02T19:53:26.754Z,70.47
2018-05-02T19:55:56.409Z,70.33
2018-05-02T19:58:26.033Z,70.51
2018-05-02T20:01:00.926Z,70.58
2018-05-02T20:03:30.563Z,70.73
2018-05-02T20:06:00.183Z,70.99
2018-05-02T20:08:35.127Z,71.20
2018-05-02T20:11:10.024Z,71.30
2018-05-02T20:13:44.975Z,71.30
2018-05-02T20:16:14.811Z,71.39
2018-05-02T20:18:44.484Z,71.54
2018-05-02T20:21:14.136Z,71.63
2018-05-02T20:23:43.761Z,71.62
2018-05-02T20:26:13.399Z,71.73
2018-05-02T20:28:44.221Z,71.81
2018-05-02T20:31:13.949Z,71.90
2018-05-02T20:33:43.313Z,71.90
2018-05-02T20:36:12.935Z,72.23
2018-05-02T20:38:44.248Z,72.33
2018-05-02T20:41:13.874Z,72.54
2018-05-02T20:43:43.560Z,72.63
2018-05-02T20:46:13.198Z,72.71
2018-05-02T20:48:42.826Z,72.72
2018-05-02T20:51:12.491Z,72.80
2018-05-02T20:53:41.846Z,72.96
2018-05-02T20:56:11.477Z,73.17
2018-05-02T20:58:41.109Z,73.44
2018-05-02T21:01:10.735Z,73.48
2018-05-02T21:03:40.352Z,73.46
2018-05-02T21:06:09.980Z,73.45
2018-05-02T21:08:39.605Z,73.55
2018-05-02T21:11:09.239Z,73.55
2018-05-02T21:13:38.921Z,73.66
2018-05-02T21:16:08.599Z,73.98
2018-05-02T21:18:38.259Z,74.04
2018-05-02T21:21:07.894Z,74.04
2018-05-02T21:23:37.531Z,74.14
2018-05-02T21:26:07.208Z,74.28
2018-05-02T21:28:36.939Z,74.46
2018-05-02T21:31:06.271Z,74.30
2018-05-02T21:33:36.092Z,74.35
2018-05-02T21:36:05.722Z,74.41
2018-05-02T21:38:35.348Z,74.61
2018-05-02T21:41:04.980Z,74.48
2018-05-02T21:43:34.620Z,74.57
2018-05-02T21:46:04.247Z,74.69
2018-05-02T21:48:33.895Z,74.81
2018-05-02T21:51:03.522Z,74.98
2018-05-02T21:53:33.190Z,75.03
2018-05-02T21:56:02.811Z,75.03
2018-05-02T21:58:32.197Z,75.29
2018-05-02T22:01:01.859Z,75.36
2018-05-02T22:03:31.218Z,75.50
2018-05-02T22:06:00.896Z,75.80
2018-05-02T22:08:30.519Z,75.75
2018-05-02T22:11:00.173Z,75.98
2018-05-02T22:13:29.815Z,76.06
2018-05-02T22:15:59.435Z,76.22
2018-05-02T22:18:29.192Z,76.31
2018-05-02T22:20:58.810Z,76.28
2018-05-02T22:23:28.456Z,76.26
2018-05-02T22:25:58.110Z,76.31
2018-05-02T22:28:27.743Z,76.55
2018-05-02T22:30:57.384Z,76.69
2018-05-02T22:33:27.019Z,76.70
2018-05-02T22:35:56.704Z,76.74
2018-05-02T22:38:26.337Z,76.87
2018-05-02T22:40:56.013Z,77.00
2018-05-02T22:43:25.642Z,77.44
2018-05-02T22:45:55.263Z,77.64
2018-05-02T22:48:24.894Z,78.04
2018-05-02T22:50:54.526Z,77.90
2018-05-02T22:53:24.206Z,78.15
2018-05-02T22:55:53.833Z,78.28
2018-05-02T22:58:23.458Z,78.34
2018-05-02T23:00:53.083Z,78.42
2018-05-02T23:03:22.716Z,78.38
2018-05-02T23:05:52.395Z,78.39
2018-05-02T23:08:22.027Z,78.67
2018-05-02T23:10:51.650Z,78.68
2018-05-02T23:13:21.279Z,78.88
2018-05-02T23:15:50.917Z,79.10
2018-05-02T23:18:20.749Z,79.04
2018-05-02T23:20:50.603Z,79.11
2018-05-02T23:23:20.270Z,79.42
2018-05-02T23:25:49.909Z,79.49
2018-05-02T23:28:19.539Z,79.50
2018-05-02T23:30:49.166Z,79.84
2018-05-02T23:33:18.806Z,80.27
2018-05-02T23:35:48.199Z,80.57
2018-05-02T23:38:17.895Z,80.79
2018-05-02T23:40:47.561Z,81.00
2018-05-02T23:43:17.213Z,81.20
2018-05-02T23:45:46.848Z,81.33
2018-05-02T23:48:16.531Z,81.55
2018-05-02T23:50:46.152Z,81.77
2018-05-02T23:53:15.831Z,81.58
2018-05-02T23:55:45.472Z,81.54
2018-05-02T23:58:15.104Z,81.58
